Time;durP1;ratioP1;P1;durP2;ratioP2;P2;SDS_P1;SDS_P2;PMS_P1;PMS_P2;Temp;Humidity;BMP_temperature;BMP_pressure;BME280_temperature;BME280_humidity;BME280_pressure;Samples;Min_cycle;Max_cycle;Signal;HPM_P1;HPM_P2
2022/03/08 00:00:42;;;;;;;;;1.00;1.00;18.40;92.00;;;;;;5053692;28;9626;-57
2022/03/08 00:03:16;;;;;;;;;3.00;3.00;18.40;92.20;;;;;;5051044;28;9694;-58
2022/03/08 00:05:47;;;;;;;;;1.00;1.00;18.40;92.00;;;;;;5059388;28;9916;-59
2022/03/08 00:08:19;;;;;;;;;1.00;1.00;18.40;92.50;;;;;;5046167;28;10670;-59
2022/03/08 00:10:50;;;;;;;;;0.75;0.75;18.40;92.60;;;;;;5052979;28;9875;-57
2022/03/08 00:13:21;;;;;;;;;2.00;2.00;18.40;92.40;;;;;;5056288;28;9735;-57
2022/03/08 00:15:53;;;;;;;;;2.25;2.25;18.40;92.70;;;;;;5050648;28;9913;-59
2022/03/08 00:18:25;;;;;;;;;1.00;1.00;18.40;92.50;;;;;;5048584;28;9850;-57
2022/03/08 00:20:56;;;;;;;;;1.00;1.00;18.40;93.00;;;;;;5044923;28;9785;-58
2022/03/08 00:23:26;;;;;;;;;1.75;1.75;18.50;92.90;;;;;;5053481;28;9847;-59
2022/03/08 00:26:01;;;;;;;;;1.00;1.00;18.40;92.70;;;;;;5050297;28;9844;-59
2022/03/08 00:28:34;;;;;;;;;1.50;1.50;18.40;93.00;;;;;;5051355;28;9700;-59
2022/03/08 00:31:08;;;;;;;;;1.00;1.00;18.40;92.40;;;;;;5051215;28;9717;-59
2022/03/08 00:33:38;;;;;;;;;1.00;1.00;18.50;91.80;;;;;;5038301;28;9973;-58
2022/03/08 00:36:09;;;;;;;;;0.00;0.00;18.50;92.20;;;;;;5053687;28;9890;-58
2022/03/08 00:38:43;;;;;;;;;1.50;1.50;18.50;91.50;;;;;;5060973;28;9855;-57
2022/03/08 00:41:16;;;;;;;;;0.25;0.25;18.50;92.50;;;;;;5035578;28;9925;-59
2022/03/08 00:43:48;;;;;;;;;1.00;1.00;18.50;92.20;;;;;;5034035;28;9769;-58
2022/03/08 00:46:19;;;;;;;;;1.75;1.75;18.50;91.90;;;;;;5049128;28;9861;-58
2022/03/08 00:48:50;;;;;;;;;2.00;2.00;18.50;92.20;;;;;;5048085;28;9951;-59
2022/03/08 00:51:20;;;;;;;;;6.00;4.75;18.50;92.60;;;;;;5050807;28;9917;-58
2022/03/08 00:53:52;;;;;;;;;2.25;2.25;18.50;92.40;;;;;;5057699;28;10199;-57
2022/03/08 00:56:23;;;;;;;;;1.00;1.00;18.50;92.10;;;;;;5049570;28;10071;-58
2022/03/08 00:58:56;;;;;;;;;1.00;1.00;18.50;92.30;;;;;;5054212;28;9760;-57
2022/03/08 01:01:26;;;;;;;;;1.00;1.00;18.40;92.10;;;;;;5053726;28;9937;-57
2022/03/08 01:03:58;;;;;;;;;1.50;1.50;18.40;92.40;;;;;;5052245;28;9840;-58
2022/03/08 01:06:30;;;;;;;;;1.00;1.00;18.50;91.90;;;;;;5049688;28;9911;-57
2022/03/08 01:09:02;;;;;;;;;1.00;1.00;18.50;92.20;;;;;;5055009;28;9946;-57
2022/03/08 01:11:32;;;;;;;;;1.00;1.00;18.40;92.40;;;;;;5052945;28;9781;-57
2022/03/08 01:14:08;;;;;;;;;0.25;0.25;18.50;92.20;;;;;;5058792;28;10537;-58
2022/03/08 01:16:38;;;;;;;;;1.00;1.00;18.40;92.10;;;;;;5049502;28;9903;-57
2022/03/08 01:19:09;;;;;;;;;1.25;1.25;18.40;92.10;;;;;;5045214;28;9845;-58
2022/03/08 01:21:41;;;;;;;;;1.00;1.00;18.40;92.10;;;;;;5048556;28;9959;-58
2022/03/08 01:24:13;;;;;;;;;0.00;0.00;18.40;92.40;;;;;;5053304;28;10015;-57
2022/03/08 01:26:45;;;;;;;;;1.00;1.00;18.40;92.40;;;;;;5051485;28;9632;-58
2022/03/08 01:29:20;;;;;;;;;1.50;1.50;18.40;92.20;;;;;;5051835;28;9875;-58
2022/03/08 01:31:50;;;;;;;;;0.00;0.00;18.40;92.00;;;;;;5051193;28;10459;-58
2022/03/08 01:34:21;;;;;;;;;1.00;1.00;18.40;92.10;;;;;;5052524;28;9717;-58
2022/03/08 01:36:51;;;;;;;;;1.00;1.00;18.40;92.50;;;;;;5051688;28;9763;-57
2022/03/08 01:39:22;;;;;;;;;1.25;1.25;18.40;92.00;;;;;;5053910;28;9945;-57
2022/03/08 01:41:55;;;;;;;;;2.00;0.00;18.40;92.40;;;;;;5046463;28;10594;-62
2022/03/08 01:44:27;;;;;;;;;1.75;1.75;18.40;93.00;;;;;;5051952;28;9995;-57
2022/03/08 01:46:57;;;;;;;;;2.00;2.00;18.40;92.20;;;;;;5060125;28;10844;-58
2022/03/08 01:49:28;;;;;;;;;0.25;0.25;18.30;91.90;;;;;;5044269;28;10054;-56
2022/03/08 01:51:59;;;;;;;;;2.00;0.25;18.30;92.60;;;;;;5052142;28;10435;-57
2022/03/08 01:54:30;;;;;;;;;0.00;0.00;18.30;92.70;;;;;;5055626;28;9987;-55
2022/03/08 01:57:00;;;;;;;;;1.00;1.00;18.30;92.90;;;;;;5053593;28;9843;-56
2022/03/08 01:59:32;;;;;;;;;0.00;0.00;18.30;92.80;;;;;;5051991;28;10018;-57
2022/03/08 02:02:04;;;;;;;;;1.25;1.25;18.30;93.10;;;;;;5052626;28;10588;-55
2022/03/08 02:04:36;;;;;;;;;0.00;0.00;18.30;93.20;;;;;;5044244;28;10822;-58
2022/03/08 02:07:07;;;;;;;;;1.00;1.00;18.30;93.40;;;;;;5033658;28;9766;-57
2022/03/08 02:09:40;;;;;;;;;1.00;1.00;18.30;93.60;;;;;;5053642;28;9905;-57
2022/03/08 02:12:11;;;;;;;;;0.75;0.75;18.30;93.90;;;;;;5057338;28;9903;-57
2022/03/08 02:14:42;;;;;;;;;0.00;0.00;18.30;94.30;;;;;;5061941;28;9832;-57
2022/03/08 02:17:12;;;;;;;;;3.00;3.00;18.20;95.80;;;;;;5051427;28;10176;-57
2022/03/08 02:19:43;;;;;;;;;9.25;9.25;18.10;99.90;;;;;;5056012;28;11225;-57
2022/03/08 02:22:16;;;;;;;;;14.00;14.00;18.10;99.90;;;;;;5050317;28;10621;-57
2022/03/08 02:24:46;;;;;;;;;19.25;19.25;18.10;99.90;;;;;;5055252;28;10762;-58
2022/03/08 02:27:17;;;;;;;;;22.50;22.50;18.00;99.90;;;;;;5058080;28;11068;-58
2022/03/08 02:29:49;;;;;;;;;16.00;16.00;18.00;99.90;;;;;;5058827;28;10899;-58
2022/03/08 02:32:20;;;;;;;;;9.75;9.75;18.00;99.90;;;;;;5056844;28;12262;-58
2022/03/08 02:34:52;;;;;;;;;2.75;2.75;18.00;99.90;;;;;;5063041;28;10726;-56
2022/03/08 02:37:21;;;;;;;;;3.25;2.50;18.00;99.90;;;;;;5062546;28;10500;-55
2022/03/08 02:39:54;;;;;;;;;2.75;2.75;18.00;99.90;;;;;;5060449;28;10111;-57
2022/03/08 02:42:25;;;;;;;;;3.00;3.00;17.90;99.90;;;;;;5039150;28;9957;-54
2022/03/08 02:44:55;;;;;;;;;2.00;2.00;17.90;99.90;;;;;;5045702;28;10273;-53
2022/03/08 02:47:25;;;;;;;;;3.00;3.00;17.90;99.90;;;;;;5053621;28;10201;-56
2022/03/08 02:49:55;;;;;;;;;2.75;1.75;17.90;99.90;;;;;;5057365;27;10296;-54
2022/03/08 02:52:26;;;;;;;;;1.00;1.00;17.80;99.90;;;;;;5065138;28;10153;-58
2022/03/08 02:54:57;;;;;;;;;2.50;2.00;17.80;99.90;;;;;;5057491;28;10240;-58
2022/03/08 02:57:28;;;;;;;;;1.00;1.00;17.80;99.90;;;;;;5056025;28;10400;-59
2022/03/08 02:59:58;;;;;;;;;1.75;1.75;17.80;99.90;;;;;;5056719;28;10322;-57
2022/03/08 03:02:29;;;;;;;;;2.75;2.75;17.70;99.90;;;;;;5057534;28;10431;-55
2022/03/08 03:05:02;;;;;;;;;2.00;2.00;17.70;99.90;;;;;;5058079;28;11529;-54
2022/03/08 03:07:33;;;;;;;;;2.00;1.00;17.60;99.90;;;;;;5055870;28;10906;-54
2022/03/08 03:10:15;;;;;;;;;1.00;1.00;17.60;99.90;;;;;;5055970;28;10790;-55
2022/03/08 03:12:47;;;;;;;;;2.00;2.00;17.50;99.90;;;;;;5071464;28;10952;-55
2022/03/08 03:15:19;;;;;;;;;1.25;1.25;17.50;99.90;;;;;;5050001;28;10847;-54
2022/03/08 03:17:52;;;;;;;;;2.00;2.00;17.50;99.90;;;;;;5060515;28;10948;-56
2022/03/08 03:20:26;;;;;;;;;5.75;4.00;17.50;99.90;;;;;;5056723;27;11002;-59
2022/03/08 03:22:57;;;;;;;;;4.25;4.25;17.50;99.90;;;;;;5055817;28;11472;-59
2022/03/08 03:25:28;;;;;;;;;5.00;5.00;17.40;99.90;;;;;;5054006;28;11507;-59
2022/03/08 03:28:00;;;;;;;;;7.25;6.00;17.40;99.90;;;;;;5058975;28;11508;-54
2022/03/08 03:30:32;;;;;;;;;6.50;6.50;17.30;99.90;;;;;;5045662;28;11467;-59
2022/03/08 03:33:03;;;;;;;;;9.00;8.75;17.30;99.90;;;;;;5051399;28;12050;-59
2022/03/08 03:35:34;;;;;;;;;5.00;5.00;17.30;99.90;;;;;;5053656;28;11458;-58
2022/03/08 03:38:05;;;;;;;;;6.50;5.00;17.30;99.90;;;;;;5054305;28;11448;-58
2022/03/08 03:40:35;;;;;;;;;5.25;5.25;17.20;99.90;;;;;;5047719;28;11461;-55
2022/03/08 03:43:06;;;;;;;;;5.00;3.00;17.20;99.90;;;;;;5054735;28;10814;-54
2022/03/08 03:45:37;;;;;;;;;3.00;3.00;17.20;99.90;;;;;;5049399;28;10896;-53
2022/03/08 03:48:07;;;;;;;;;3.00;3.00;17.10;99.90;;;;;;5053334;28;11610;-55
2022/03/08 03:50:39;;;;;;;;;3.50;3.50;17.10;99.90;;;;;;5057783;28;10702;-59
2022/03/08 03:53:10;;;;;;;;;4.00;3.00;17.00;99.90;;;;;;5058103;28;10679;-58
2022/03/08 03:55:41;;;;;;;;;4.50;4.00;17.00;99.90;;;;;;5052297;28;11610;-59
2022/03/08 03:58:12;;;;;;;;;1.00;1.00;17.00;99.90;;;;;;5054863;28;10822;-56
2022/03/08 04:00:44;;;;;;;;;3.00;3.00;16.90;99.90;;;;;;5053987;28;10705;-58
2022/03/08 04:03:15;;;;;;;;;4.50;2.75;16.90;99.90;;;;;;5065035;28;10764;-58
2022/03/08 04:05:46;;;;;;;;;1.00;1.00;16.90;99.90;;;;;;5055465;28;10888;-58
2022/03/08 04:08:20;;;;;;;;;3.00;3.00;16.80;99.90;;;;;;5050708;28;10725;-58
2022/03/08 04:10:51;;;;;;;;;6.00;4.25;16.80;99.90;;;;;;5055053;28;11177;-58
2022/03/08 04:13:22;;;;;;;;;5.00;5.00;16.80;99.90;;;;;;5060037;28;10747;-56
2022/03/08 04:15:53;;;;;;;;;3.00;3.00;16.70;99.90;;;;;;5054782;28;10790;-57
2022/03/08 04:18:24;;;;;;;;;2.75;2.75;16.60;99.90;;;;;;5056662;28;10918;-58
2022/03/08 04:20:55;;;;;;;;;2.00;2.00;16.60;99.90;;;;;;5052158;28;11156;-58
2022/03/08 04:23:25;;;;;;;;;3.25;3.25;16.60;99.90;;;;;;5055417;28;10815;-55
2022/03/08 04:25:57;;;;;;;;;2.75;2.75;16.50;99.90;;;;;;5048601;28;11010;-57
2022/03/08 04:28:27;;;;;;;;;4.00;4.00;16.50;99.90;;;;;;5053878;28;11922;-59
2022/03/08 04:30:57;;;;;;;;;6.75;4.00;16.40;99.90;;;;;;5050465;28;10940;-58
2022/03/08 04:33:28;;;;;;;;;3.75;3.75;16.40;99.90;;;;;;5049485;28;11100;-55
2022/03/08 04:36:00;;;;;;;;;5.00;5.00;16.40;99.90;;;;;;5050002;28;11215;-55
2022/03/08 04:38:34;;;;;;;;;4.00;4.00;16.30;99.90;;;;;;5052602;28;12081;-58
2022/03/08 04:41:06;;;;;;;;;2.50;2.50;16.30;99.90;;;;;;5047208;28;11503;-58
2022/03/08 04:43:37;;;;;;;;;4.00;4.00;16.30;99.90;;;;;;5052515;28;11457;-53
2022/03/08 04:46:07;;;;;;;;;4.00;4.00;16.20;99.90;;;;;;5049888;28;11445;-54
2022/03/08 04:48:37;;;;;;;;;4.00;3.75;16.20;99.90;;;;;;5054493;28;11934;-56
2022/03/08 04:51:07;;;;;;;;;5.00;5.00;16.10;99.90;;;;;;5050648;28;11072;-56
2022/03/08 04:53:39;;;;;;;;;4.25;4.00;16.10;99.90;;;;;;5051657;28;11107;-53
2022/03/08 04:56:10;;;;;;;;;3.50;3.50;16.00;99.90;;;;;;5046563;28;11446;-52
2022/03/08 04:58:42;;;;;;;;;4.50;4.50;16.00;99.90;;;;;;5051484;28;11463;-54
2022/03/08 05:01:14;;;;;;;;;2.00;2.00;15.90;99.90;;;;;;5045224;28;12237;-56
2022/03/08 05:03:44;;;;;;;;;5.75;4.00;15.90;99.90;;;;;;5055800;28;12068;-60
2022/03/08 05:06:14;;;;;;;;;4.00;4.00;15.90;99.90;;;;;;5049265;28;12203;-60
2022/03/08 05:08:48;;;;;;;;;3.00;3.00;15.80;99.90;;;;;;5050612;28;12262;-61
2022/03/08 05:11:18;;;;;;;;;3.00;3.00;15.80;99.90;;;;;;5057248;28;11458;-59
2022/03/08 05:13:50;;;;;;;;;4.50;4.50;15.70;99.90;;;;;;5046573;28;11479;-58
2022/03/08 05:16:21;;;;;;;;;2.75;2.75;15.70;99.90;;;;;;5051338;28;11482;-58
2022/03/08 05:18:53;;;;;;;;;6.75;3.50;15.70;99.90;;;;;;5050217;28;11441;-54
2022/03/08 05:21:24;;;;;;;;;5.25;5.25;15.60;99.90;;;;;;5051226;28;11506;-59
2022/03/08 05:23:55;;;;;;;;;4.00;4.00;15.50;99.90;;;;;;5056706;28;12204;-58
2022/03/08 05:26:26;;;;;;;;;5.00;5.00;15.50;99.90;;;;;;5049428;28;11433;-58
2022/03/08 05:28:58;;;;;;;;;3.50;3.00;15.50;99.90;;;;;;5050112;28;11471;-53
2022/03/08 05:31:29;;;;;;;;;3.00;3.00;15.40;99.90;;;;;;5046307;28;11480;-59
2022/03/08 05:34:02;;;;;;;;;3.50;3.50;15.40;99.90;;;;;;5051410;28;11525;-53
2022/03/08 05:36:34;;;;;;;;;5.50;5.50;15.40;99.90;;;;;;5043323;28;11481;-54
2022/03/08 05:39:05;;;;;;;;;5.00;5.00;15.30;99.90;;;;;;5042419;28;11497;-50
2022/03/08 05:41:37;;;;;;;;;5.00;3.50;15.30;99.90;;;;;;5050298;28;11432;-53
2022/03/08 05:44:07;;;;;;;;;6.00;6.00;15.20;99.90;;;;;;5052019;28;11447;-54
2022/03/08 05:46:42;;;;;;;;;3.25;3.25;15.20;99.90;;;;;;5047192;28;11499;-51
2022/03/08 05:49:13;;;;;;;;;10.00;10.00;15.20;99.90;;;;;;5049773;28;11452;-59
2022/03/08 05:51:45;;;;;;;;;11.00;9.75;15.10;99.90;;;;;;5046981;28;11450;-60
2022/03/08 05:54:18;;;;;;;;;11.50;10.25;15.10;99.90;;;;;;5045694;28;11565;-51
2022/03/08 05:56:51;;;;;;;;;12.00;10.25;15.00;99.90;;;;;;5051141;28;11538;-52
2022/03/08 05:59:21;;;;;;;;;11.25;11.25;14.90;99.90;;;;;;5043692;28;11530;-58
2022/03/08 06:01:55;;;;;;;;;9.75;9.75;14.90;99.90;;;;;;5046075;28;11572;-58
2022/03/08 06:04:26;;;;;;;;;11.50;10.00;14.90;99.90;;;;;;5046086;28;11533;-53
2022/03/08 06:06:58;;;;;;;;;5.75;5.75;14.80;99.90;;;;;;5048573;28;11552;-59
2022/03/08 06:09:30;;;;;;;;;8.50;8.50;14.80;99.90;;;;;;5049856;28;11465;-59
2022/03/08 06:12:00;;;;;;;;;8.00;8.00;14.80;99.90;;;;;;5044197;28;11494;-58
2022/03/08 06:14:33;;;;;;;;;6.75;6.75;14.80;99.90;;;;;;5052161;28;11459;-59
2022/03/08 06:17:07;;;;;;;;;6.75;6.75;14.70;99.90;;;;;;5046396;28;11519;-59
2022/03/08 06:19:37;;;;;;;;;9.00;9.00;14.70;99.90;;;;;;5045422;28;11483;-59
2022/03/08 06:22:08;;;;;;;;;8.50;8.25;14.70;99.90;;;;;;5045457;28;11505;-52
2022/03/08 06:24:38;;;;;;;;;10.00;10.00;14.60;99.90;;;;;;5051027;28;11535;-58
2022/03/08 06:27:10;;;;;;;;;11.50;11.50;14.60;99.90;;;;;;5050992;28;11565;-59
2022/03/08 06:29:41;;;;;;;;;12.75;11.00;14.60;99.90;;;;;;5049922;28;11570;-55
2022/03/08 06:32:13;;;;;;;;;8.00;8.00;14.50;99.90;;;;;;5046520;28;12288;-53
2022/03/08 06:34:45;;;;;;;;;10.00;10.00;14.40;99.90;;;;;;5047854;28;11555;-58
2022/03/08 06:37:16;;;;;;;;;10.00;10.00;14.40;99.90;;;;;;5048725;28;11546;-57
2022/03/08 06:39:48;;;;;;;;;11.50;9.75;14.40;99.90;;;;;;5049024;28;11511;-57
2022/03/08 06:42:18;;;;;;;;;9.75;9.75;14.30;99.90;;;;;;5046107;28;11526;-58
2022/03/08 06:44:49;;;;;;;;;12.25;10.25;14.30;99.90;;;;;;5051180;28;11530;-58
2022/03/08 06:47:21;;;;;;;;;11.75;11.75;14.30;99.90;;;;;;5050598;28;11592;-58
2022/03/08 06:49:52;;;;;;;;;13.00;13.00;14.20;99.90;;;;;;5052613;28;11550;-53
2022/03/08 06:52:24;;;;;;;;;10.50;10.50;14.20;99.90;;;;;;5045384;28;11532;-54
2022/03/08 06:54:56;;;;;;;;;10.00;10.00;14.10;99.90;;;;;;5050346;28;11603;-50
2022/03/08 06:57:26;;;;;;;;;2.75;2.75;14.10;99.90;;;;;;5045739;28;11591;-51
2022/03/08 06:59:57;;;;;;;;;9.75;9.75;14.00;99.90;;;;;;5046343;28;11522;-53
2022/03/08 07:02:28;;;;;;;;;7.75;7.75;14.00;99.90;;;;;;5052436;28;11504;-54
2022/03/08 07:04:59;;;;;;;;;8.00;8.00;14.00;99.90;;;;;;5053166;28;11482;-59
2022/03/08 07:07:29;;;;;;;;;9.00;8.00;13.90;99.90;;;;;;5050627;28;11499;-58
2022/03/08 07:10:00;;;;;;;;;9.75;9.75;13.90;99.90;;;;;;5048255;28;11547;-55
2022/03/08 07:12:30;;;;;;;;;8.25;7.00;13.80;99.90;;;;;;5053228;28;12307;-58
2022/03/08 07:15:03;;;;;;;;;6.75;6.75;13.80;99.90;;;;;;5043473;28;11860;-59
2022/03/08 07:17:35;;;;;;;;;10.50;8.50;13.80;99.90;;;;;;5053685;28;11507;-58
2022/03/08 07:20:05;;;;;;;;;6.00;6.00;13.80;99.90;;;;;;5048088;28;11576;-54
2022/03/08 07:22:37;;;;;;;;;7.75;7.75;13.70;99.90;;;;;;5053449;28;12298;-50
2022/03/08 07:25:12;;;;;;;;;10.25;8.00;13.70;99.90;;;;;;5050818;28;11511;-55
2022/03/08 07:27:42;;;;;;;;;5.50;5.50;13.60;99.90;;;;;;5050784;28;11615;-54
2022/03/08 07:30:13;;;;;;;;;9.25;7.50;13.60;99.90;;;;;;5046357;28;12253;-53
2022/03/08 07:32:46;;;;;;;;;7.00;7.00;13.60;99.90;;;;;;5050921;28;12230;-53
2022/03/08 07:35:16;;;;;;;;;5.75;5.75;13.60;99.90;;;;;;5047037;28;11562;-59
2022/03/08 07:37:47;;;;;;;;;5.75;4.00;13.50;99.90;;;;;;5047269;28;11523;-58
2022/03/08 07:40:17;;;;;;;;;6.25;6.25;13.50;99.90;;;;;;5050617;28;11513;-54
2022/03/08 07:42:46;;;;;;;;;7.00;7.00;13.50;99.90;;;;;;5053459;28;11500;-59
2022/03/08 07:45:17;;;;;;;;;8.25;8.25;13.40;99.90;;;;;;5047168;28;11534;-58
2022/03/08 07:47:48;;;;;;;;;6.00;6.00;13.30;99.90;;;;;;5050325;28;11486;-54
2022/03/08 07:50:18;;;;;;;;;6.00;6.00;13.30;99.90;;;;;;5054232;28;11542;-54
2022/03/08 07:52:50;;;;;;;;;7.00;7.00;13.30;99.90;;;;;;5051387;28;11520;-52
2022/03/08 07:55:21;;;;;;;;;7.00;7.00;13.30;99.90;;;;;;5053541;28;12352;-58
2022/03/08 07:57:53;;;;;;;;;9.00;9.00;13.20;99.90;;;;;;5046740;28;11549;-54
2022/03/08 08:00:31;;;;;;;;;7.50;7.50;13.20;99.90;;;;;;5046046;28;11516;-54
2022/03/08 08:03:06;;;;;;;;;8.00;8.00;13.20;99.90;;;;;;5052094;28;11515;-58
2022/03/08 08:05:39;;;;;;;;;7.00;7.00;13.10;99.90;;;;;;5053746;28;11519;-54
2022/03/08 08:08:09;;;;;;;;;7.00;7.00;13.10;99.90;;;;;;5044316;28;11513;-54
2022/03/08 08:10:39;;;;;;;;;3.00;3.00;13.00;99.90;;;;;;5031301;28;11565;-53
2022/03/08 08:13:09;;;;;;;;;5.00;5.00;13.00;99.90;;;;;;5055290;28;12611;-59
2022/03/08 08:15:41;;;;;;;;;3.75;3.75;13.00;99.90;;;;;;5047859;28;11502;-56
2022/03/08 08:18:20;;;;;;;;;5.00;5.00;12.90;99.90;;;;;;5045416;28;11539;-54
2022/03/08 08:20:52;;;;;;;;;7.00;5.25;12.80;99.90;;;;;;5055306;28;12262;-59
2022/03/08 08:23:21;;;;;;;;;6.75;6.00;12.70;99.90;;;;;;5053622;28;11511;-59
2022/03/08 08:25:52;;;;;;;;;7.75;7.75;12.70;99.90;;;;;;5050086;28;12639;-54
2022/03/08 08:28:23;;;;;;;;;7.50;6.25;12.70;99.90;;;;;;5054697;28;11489;-58
2022/03/08 08:31:00;;;;;;;;;2.25;2.25;12.70;99.90;;;;;;5051609;28;11536;-58
2022/03/08 08:33:32;;;;;;;;;4.75;4.75;12.70;99.90;;;;;;5046931;28;11505;-59
2022/03/08 08:36:04;;;;;;;;;4.25;4.25;12.70;99.90;;;;;;5047628;28;11544;-55
2022/03/08 08:38:35;;;;;;;;;7.00;5.25;12.60;99.90;;;;;;5048989;28;11518;-54
2022/03/08 08:41:08;;;;;;;;;5.00;5.00;12.60;99.90;;;;;;5051342;28;11577;-53
2022/03/08 08:43:38;;;;;;;;;7.00;7.00;12.60;99.90;;;;;;5059367;28;12323;-58
2022/03/08 08:46:09;;;;;;;;;7.00;7.00;12.60;99.90;;;;;;5046206;28;11618;-59
2022/03/08 08:48:40;;;;;;;;;6.00;6.00;12.50;99.90;;;;;;5056115;28;11536;-55
2022/03/08 08:51:10;;;;;;;;;8.25;8.25;12.50;99.90;;;;;;5052541;28;11495;-54
2022/03/08 08:53:43;;;;;;;;;6.50;6.50;12.40;99.90;;;;;;5055052;28;11603;-59
2022/03/08 08:56:12;;;;;;;;;10.00;10.00;12.40;99.90;;;;;;5040973;28;11526;-59
2022/03/08 08:58:44;;;;;;;;;10.75;10.75;12.40;99.90;;;;;;5050486;28;11517;-59
2022/03/08 09:01:15;;;;;;;;;16.25;16.25;12.30;99.90;;;;;;5045261;28;11493;-59
2022/03/08 09:03:45;;;;;;;;;16.00;16.00;12.30;99.90;;;;;;5049446;28;11496;-52
2022/03/08 09:06:16;;;;;;;;;14.75;13.75;12.20;99.90;;;;;;5049619;28;11592;-53
2022/03/08 09:08:48;;;;;;;;;12.00;12.00;12.20;99.90;;;;;;5052590;27;11548;-59
2022/03/08 09:11:23;;;;;;;;;11.00;11.00;12.10;99.90;;;;;;5046475;28;11494;-59
2022/03/08 09:13:56;;;;;;;;;15.00;15.00;12.10;99.90;;;;;;5048838;28;11527;-52
2022/03/08 09:16:27;;;;;;;;;19.00;19.00;12.10;99.90;;;;;;5047513;28;12337;-53
2022/03/08 09:18:59;;;;;;;;;21.00;21.00;12.10;99.90;;;;;;5046533;28;11537;-59
2022/03/08 09:21:30;;;;;;;;;18.00;18.00;12.10;99.90;;;;;;5058046;28;11549;-59
2022/03/08 09:24:00;;;;;;;;;18.25;18.25;12.10;99.90;;;;;;5052004;28;12299;-53
2022/03/08 09:26:33;;;;;;;;;10.50;10.50;12.00;99.90;;;;;;5046794;28;11556;-54
2022/03/08 09:29:03;;;;;;;;;5.25;5.25;12.00;99.90;;;;;;5050824;28;11544;-51
2022/03/08 09:31:34;;;;;;;;;5.75;5.75;12.00;99.90;;;;;;5050460;28;11556;-53
2022/03/08 09:34:06;;;;;;;;;2.50;2.50;12.00;99.90;;;;;;5049357;28;11533;-55
2022/03/08 09:36:39;;;;;;;;;8.00;8.00;11.90;99.90;;;;;;5051001;28;11546;-54
2022/03/08 09:39:10;;;;;;;;;4.75;4.75;11.90;99.90;;;;;;5048226;28;11544;-58
2022/03/08 09:41:51;;;;;;;;;3.25;3.25;11.90;99.90;;;;;;5054657;28;11542;-58
2022/03/08 09:44:26;;;;;;;;;8.00;6.25;11.80;99.90;;;;;;5049841;28;11522;-54
2022/03/08 09:46:57;;;;;;;;;10.00;10.00;11.80;99.90;;;;;;5046082;28;11503;-59
2022/03/08 09:49:28;;;;;;;;;10.00;8.75;11.80;99.90;;;;;;5046532;28;11528;-58
2022/03/08 09:51:58;;;;;;;;;6.25;6.25;11.70;99.90;;;;;;5049859;28;11577;-59
2022/03/08 09:54:28;;;;;;;;;10.25;10.25;11.70;99.90;;;;;;5051558;28;11517;-59
2022/03/08 09:56:58;;;;;;;;;11.75;11.75;11.60;99.90;;;;;;5052243;28;11580;-59
2022/03/08 09:59:30;;;;;;;;;8.75;8.75;11.60;99.90;;;;;;5040675;28;11570;-54
2022/03/08 10:02:07;;;;;;;;;5.00;5.00;11.60;99.90;;;;;;5047513;28;11605;-55
2022/03/08 10:04:39;;;;;;;;;4.50;4.50;11.60;99.90;;;;;;5050720;27;11531;-54
2022/03/08 10:07:30;;;;;;;;;3.25;3.25;11.50;99.90;;;;;;5033874;28;11562;-54
2022/03/08 10:10:01;;;;;;;;;3.75;3.75;11.50;99.90;;;;;;5042072;28;12245;-58
2022/03/08 10:12:58;;;;;;;;;2.75;2.75;11.50;99.90;;;;;;5052643;28;11571;-58
2022/03/08 10:15:27;;;;;;;;;3.00;3.00;11.50;99.90;;;;;;5047170;28;11501;-58
2022/03/08 10:17:58;;;;;;;;;3.50;3.50;11.40;99.90;;;;;;5050190;28;11532;-58
2022/03/08 10:20:32;;;;;;;;;3.00;3.00;11.40;99.90;;;;;;5048432;28;10935;-58
2022/03/08 10:23:12;;;;;;;;;5.00;3.75;11.40;99.90;;;;;;5047618;28;12269;-59
2022/03/08 10:25:42;;;;;;;;;2.00;2.00;11.30;99.90;;;;;;5051535;28;11497;-59
2022/03/08 10:28:14;;;;;;;;;2.00;2.00;11.30;99.90;;;;;;5048097;28;11479;-58
2022/03/08 10:30:45;;;;;;;;;3.50;3.50;11.30;99.90;;;;;;5038373;28;11544;-56
2022/03/08 10:33:19;;;;;;;;;3.25;2.00;11.20;99.90;;;;;;5056351;28;11565;-59
2022/03/08 10:35:55;;;;;;;;;3.00;3.00;11.20;99.90;;;;;;5054896;28;11803;-59
2022/03/08 10:38:26;;;;;;;;;2.75;2.75;11.20;99.90;;;;;;5047570;28;12296;-54
2022/03/08 10:40:56;;;;;;;;;3.00;3.00;11.20;99.90;;;;;;5053886;28;12130;-53
2022/03/08 10:43:29;;;;;;;;;3.00;3.00;11.10;99.90;;;;;;5056386;28;11519;-54
2022/03/08 10:46:00;;;;;;;;;2.50;2.50;11.10;99.90;;;;;;5045694;28;11533;-57
2022/03/08 10:48:36;;;;;;;;;3.00;3.00;11.10;99.90;;;;;;5051554;28;11560;-53
2022/03/08 10:51:17;;;;;;;;;2.75;2.75;11.10;99.90;;;;;;5052980;28;11538;-54
2022/03/08 10:53:47;;;;;;;;;4.00;4.00;11.00;99.90;;;;;;5049751;28;11548;-55
2022/03/08 10:56:23;;;;;;;;;3.75;3.75;11.10;99.90;;;;;;5052285;28;12343;-59
2022/03/08 10:58:54;;;;;;;;;3.25;3.25;11.00;99.90;;;;;;5049909;28;11506;-54
2022/03/08 11:01:24;;;;;;;;;2.25;2.25;11.00;99.90;;;;;;5048426;28;11548;-53
2022/03/08 11:03:56;;;;;;;;;3.00;3.00;10.90;99.90;;;;;;5058318;28;12419;-51
2022/03/08 11:06:29;;;;;;;;;3.00;3.00;11.00;99.90;;;;;;5055197;28;11546;-59
2022/03/08 11:09:01;;;;;;;;;3.25;3.25;10.90;99.90;;;;;;5047114;28;11515;-53
2022/03/08 11:11:31;;;;;;;;;2.00;2.00;10.80;99.90;;;;;;5046964;28;11485;-54
2022/03/08 11:14:03;;;;;;;;;3.50;3.50;10.90;99.90;;;;;;5060072;28;11490;-59
2022/03/08 11:16:35;;;;;;;;;3.25;3.25;10.80;99.90;;;;;;5055927;28;11504;-54
2022/03/08 11:19:08;;;;;;;;;3.50;3.50;10.80;99.90;;;;;;5049968;28;12331;-53
2022/03/08 11:21:42;;;;;;;;;2.75;2.75;10.80;99.90;;;;;;5048024;28;11572;-54
2022/03/08 11:24:15;;;;;;;;;4.25;3.25;10.80;99.90;;;;;;5055456;28;11580;-54
2022/03/08 11:26:46;;;;;;;;;4.25;4.25;10.80;99.90;;;;;;5052026;28;11512;-54
2022/03/08 11:29:17;;;;;;;;;4.00;4.00;10.70;99.90;;;;;;5050077;28;12334;-58
2022/03/08 11:31:53;;;;;;;;;3.00;3.00;10.70;99.90;;;;;;5041288;28;11507;-59
2022/03/08 11:34:36;;;;;;;;;2.75;2.75;10.70;99.90;;;;;;5055727;28;11484;-58
2022/03/08 11:37:18;;;;;;;;;3.00;3.00;10.70;99.90;;;;;;5049963;28;11548;-58
2022/03/08 11:40:13;;;;;;;;;4.50;3.00;10.70;99.90;;;;;;5071013;28;12090;-54
2022/03/08 11:42:46;;;;;;;;;3.75;2.00;10.60;99.90;;;;;;5048860;28;11513;-55
2022/03/08 11:45:28;;;;;;;;;4.00;3.00;10.60;99.90;;;;;;5050330;28;11542;-58
2022/03/08 11:48:08;;;;;;;;;3.00;3.00;10.60;99.90;;;;;;5054900;28;11505;-54
2022/03/08 11:50:40;;;;;;;;;2.00;2.00;10.60;99.90;;;;;;5049479;28;11562;-53
2022/03/08 11:53:18;;;;;;;;;4.50;4.50;10.50;99.90;;;;;;5045609;28;11520;-52
2022/03/08 11:55:56;;;;;;;;;3.00;3.00;10.40;99.90;;;;;;5046622;28;12240;-59
2022/03/08 11:58:50;;;;;;;;;6.25;4.00;10.50;99.90;;;;;;5050837;28;12545;-58
2022/03/08 12:01:27;;;;;;;;;3.25;3.25;10.40;99.90;;;;;;5046103;28;11532;-58
2022/03/08 12:04:05;;;;;;;;;3.50;3.50;10.30;99.90;;;;;;5047624;28;13502;-53
2022/03/08 12:06:37;;;;;;;;;4.25;4.25;10.30;99.90;;;;;;5049042;28;11890;-58
2022/03/08 12:09:13;;;;;;;;;4.75;3.50;10.30;99.90;;;;;;5049858;28;12360;-59
2022/03/08 12:11:47;;;;;;;;;3.00;3.00;10.30;99.90;;;;;;5043718;28;11505;-59
2022/03/08 12:14:38;;;;;;;;;0.00;0.00;10.30;99.90;;;;;;5054545;28;11577;-59
2022/03/08 12:17:17;;;;;;;;;4.25;4.25;10.30;99.90;;;;;;5044094;28;11540;-53
2022/03/08 12:19:52;;;;;;;;;4.50;4.50;10.30;99.90;;;;;;5059891;28;11916;-53
2022/03/08 12:22:25;;;;;;;;;3.75;3.75;10.30;99.90;;;;;;5041927;28;11519;-59
2022/03/08 12:25:02;;;;;;;;;3.00;3.00;10.20;99.90;;;;;;5044321;28;11506;-59
2022/03/08 12:27:53;;;;;;;;;4.00;4.00;10.20;99.90;;;;;;5044445;28;11492;-53
2022/03/08 12:30:41;;;;;;;;;2.75;2.75;10.10;99.90;;;;;;5048124;28;12352;-53
2022/03/08 12:33:17;;;;;;;;;5.25;2.25;10.10;99.90;;;;;;5044433;28;11514;-59
2022/03/08 12:35:54;;;;;;;;;4.00;4.00;10.10;99.90;;;;;;5043157;28;11562;-55
2022/03/08 12:38:25;;;;;;;;;6.50;3.25;10.10;99.90;;;;;;5047659;28;11564;-55
2022/03/08 12:40:55;;;;;;;;;2.75;2.75;10.10;99.90;;;;;;5047339;28;11521;-54
2022/03/08 12:43:25;;;;;;;;;4.50;4.50;10.00;99.90;;;;;;5055821;28;11513;-53
2022/03/08 12:45:55;;;;;;;;;3.50;3.50;10.00;99.90;;;;;;5048545;28;11570;-53
2022/03/08 12:48:26;;;;;;;;;3.00;3.00;9.90;99.90;;;;;;5057949;28;11498;-58
2022/03/08 12:50:57;;;;;;;;;4.00;3.00;9.90;99.90;;;;;;5046283;28;11630;-57
2022/03/08 12:53:30;;;;;;;;;2.25;2.00;9.90;99.90;;;;;;5054400;28;11499;-54
2022/03/08 12:56:11;;;;;;;;;3.25;3.25;9.90;99.90;;;;;;5050019;28;12172;-52
2022/03/08 12:58:43;;;;;;;;;4.75;3.25;9.90;99.90;;;;;;5046833;28;11560;-60
2022/03/08 13:01:14;;;;;;;;;3.50;3.50;9.90;99.90;;;;;;5048073;28;11520;-59
2022/03/08 13:03:47;;;;;;;;;6.75;5.25;9.90;99.90;;;;;;5053041;28;11515;-59
2022/03/08 13:06:19;;;;;;;;;3.25;3.25;9.80;99.90;;;;;;5046995;28;12283;-55
2022/03/08 13:08:50;;;;;;;;;1.75;1.75;9.80;99.90;;;;;;5046639;28;11550;-53
2022/03/08 13:11:20;;;;;;;;;3.25;3.25;9.70;99.90;;;;;;5046515;28;11494;-53